Oysterville, Washington
Current Conditions -  °F | °C
As of 8:44 AM on Tuesday 27 Jan 2015 (Local Time) from KAST Reporting Station
Haze Haze  
Wind Chill: 48°   Ceiling: 1100
Heat Index: 48°   Visibility: 6mi
Dew Point: 46°   Wind: 0mph
Humidity: 93%   Direction: NA
Pressure: 30.06"   Gusts: NA
Location:  46.55°N, 124.03°W
Report Text: KAST 271644Z AUTO 00000KT 6SM BR BKN011 OVC016 09/08 A3006 RMK AO2 T00890078
Loading
Personal Weather Stations






























Interactive Weather Map New forecast layout! Learn more

10-Day Weather Forecast

Advertisements
Track Severe Weather on mobile